ADDS METAR Data INFO
IDs: Format: Raw Decoded Include TAF

Data at: 0144 UTC 26 Feb 2018

KRZR 260135Z AUTO 00000KT 10SM FEW039 BKN070 OVC095 13/12 A3013 RMK A01
KRZR 260115Z AUTO 15004KT 10SM FEW065 BKN075 OVC095 13/12 A3013 RMK A01
KRZR 260055Z AUTO 00000KT 10SM FEW050 BKN075 OVC095 14/12 A3013 RMK A01
KRZR 260035Z AUTO 00000KT 10SM FEW029 SCT055 BKN070 14/11 A3013 RMK A01
KRZR 260015Z AUTO 21003KT 10SM FEW046 BKN075 OVC100 14/11 A3013 RMK A01
KRZR 252355Z AUTO 22006G11KT 10SM SCT034 SCT080 OVC100 14/11 A3013 RMK A01
KRZR 252335Z AUTO 23006KT 10SM BKN034 OVC100 14/11 A3014 RMK A01
KRZR 252315Z AUTO 20004KT 10SM FEW038 FEW070 BKN100 14/11 A3010 RMK A01
KRZR 252255Z AUTO 21005KT 10SM FEW043 SCT095 BKN110 14/11 A3010 RMK A01
KRZR 252235Z AUTO 24006KT 10SM FEW028 SCT085 BKN110 15/12 A3010 RMK A01
KRZR 252215Z AUTO 24004KT 10SM FEW039 SCT110 14/12 A3010 RMK A01
KRZR 252155Z AUTO 00000KT 10SM FEW039 15/12 A3008 RMK A01
KRZR 252135Z AUTO VRB06KT 10SM CLR 15/12 A3003 RMK A01
KRZR 252115Z AUTO 00000KT 10SM FEW024 FEW033 14/12 A3005 RMK A01
KRZR 252055Z AUTO 27005KT 10SM FEW023 SCT033 14/11 A3006 RMK A01
KRZR 252035Z AUTO 00000G10KT 10SM FEW020 14/12 A3002 RMK A01
KRZR 252015Z AUTO 00000G10KT 10SM BKN019 14/11 A3003 RMK A01
KRZR 251955Z AUTO 31005G15KT 10SM BKN020 14/12 A3003 RMK A01
KRZR 251935Z AUTO 18003KT 10SM FEW022 14/11 A2998 RMK A01
KRZR 251915Z AUTO 30009KT 10SM CLR 14/12 A3003 RMK A01
KRZR 251855Z AUTO 14004KT 10SM CLR 14/11 A2998 RMK A01
KRZR 251835Z AUTO 26008KT 10SM CLR 15/12 A3005 RMK A01
KRZR 251815Z AUTO VRB06G13KT 10SM CLR 14/12 A3004 RMK A01
KRZR 251755Z AUTO 18007KT 10SM CLR 14/11 A3009 RMK A01
KRZR 251735Z AUTO VRB04G10KT 10SM CLR 14/11 A3011 RMK A01
KRZR 251715Z AUTO VRB05G11KT 10SM CLR 14/12 A3011 RMK A01
KRZR 251655Z AUTO 19007KT 10SM CLR 14/12 A3012 RMK A01
KRZR 251635Z AUTO 17006G12KT 10SM CLR 14/12 A3010 RMK A01
KRZR 251505Z AUTO VRB03KT 10SM CLR 14/11 A3009 RMK A01
KRZR 251455Z AUTO 28004KT 10SM CLR 14/11 A3010 RMK A01 P0001
KRZR 251435Z AUTO 29009KT 10SM FEW055 SCT090 13/12 A3009 RMK A01
KRZR 251415Z AUTO 33004KT 10SM FEW049 FEW055 SCT075 13/11 A3006 RMK A01
KRZR 251355Z AUTO 00000KT 10SM FEW050 SCT075 BKN095 13/12 A3007 RMK A01
KRZR 251335Z AUTO 28007KT 10SM FEW042 FEW060 BKN100 14/12 A3008 RMK A01
KRZR 251315Z AUTO 17003G10KT 10SM FEW055 SCT075 BKN090 14/13 A3005 RMK A01
KRZR 251255Z AUTO 15004KT 7SM FEW047 SCT060 BKN075 14/14 A3005 RMK A01 P0005
KRZR 251235Z AUTO 00000KT 7SM FEW050 BKN060 OVC075 14/14 A3007 RMK A01
KRZR 251215Z AUTO 00000KT 6SM BR FEW007 SCT035 BKN055 14/13 A3005 RMK A01
KRZR 251155Z AUTO 34006KT 3SM BR SCT008 BKN020 OVC035 14/14 A3004 RMK A01 P0012
KRZR 251135Z AUTO 31006KT 4SM BR BKN016 OVC021 15/14 A3001 RMK A01
KRZR 251115Z AUTO 32007KT 3SM BR SCT011 BKN015 OVC021 16/15 A3000 RMK A01
KRZR 251055Z AUTO 19003KT 4SM BR SCT020 BKN032 OVC075 17/16 A2997 RMK A01 P0028
KRZR 251035Z AUTO 24007KT 8SM FEW004 BKN034 OVC075 17/16 A2998 RMK A01
KRZR 251015Z AUTO 24009G16KT 3SM BR SCT004 BKN036 OVC045 17/16 A2996 RMK A01
KRZR 250955Z AUTO 26015KT 230V290 10SM FEW027 SCT036 BKN043 20/16 A2995 RMK A01
KRZR 250935Z AUTO 18009G17KT 10SM FEW030 BKN035 OVC042 20/16 A2991 RMK A01
KRZR 250915Z AUTO 18011G17KT 10SM BKN034 BKN039 OVC047 20/16 A2992 RMK A01
KRZR 250855Z AUTO 19011G18KT 10SM BKN033 BKN045 OVC055 20/16 A2992 RMK A01
KRZR 250835Z AUTO 20011G17KT 10SM BKN033 BKN040 OVC075 21/15 A2994 RMK A01
KRZR 250815Z AUTO 20011G18KT 10SM FEW034 OVC075 21/15 A2994 RMK A01
KRZR 250755Z AUTO 19009G15KT 160V230 10SM SCT034 BKN080 OVC100 21/15 A2994 RMK A01
KRZR 250735Z AUTO 19009G18KT 10SM OVC095 21/15 A2993 RMK A01
KRZR 250715Z AUTO 20011G17KT 10SM FEW042 OVC095 21/15 A2994 RMK A01
KRZR 250655Z AUTO 20011G18KT 10SM FEW055 OVC080 21/15 A2994 RMK A01
KRZR 250635Z AUTO 20008G15KT 170V230 10SM FEW045 SCT055 OVC075 21/15 A2994 RMK A01
KRZR 250615Z AUTO 20008G15KT 170V230 10SM FEW039 FEW044 BKN055 21/15 A2994 RMK A01
KRZR 250555Z AUTO 20012G19KT 10SM FEW039 SCT050 BKN110 21/15 A2995 RMK A01
KRZR 250535Z AUTO 19010G16KT 10SM FEW055 SCT060 OVC110 21/15 A2994 RMK A01
KRZR 250515Z AUTO 19009KT 10SM BKN055 BKN065 OVC110 20/15 A2995 RMK A01
KRZR 250455Z AUTO 19007G13KT 150V220 10SM FEW045 BKN055 OVC080 20/16 A2995 RMK A01
KRZR 250435Z AUTO 19014G21KT 150V220 9SM FEW042 SCT060 OVC080 20/16 A2995 RMK A01
KRZR 250415Z AUTO 21016G27KT 6SM HZ FEW016 BKN050 OVC065 21/15 A2997 RMK A01
KRZR 250355Z AUTO 20017G23KT 170V230 10SM FEW049 SCT055 BKN075 23/14 A2995 RMK A01
KRZR 250335Z AUTO 19011G18KT 10SM FEW047 SCT065 BKN080 22/14 A2995 RMK A01
KRZR 250315Z AUTO 19010G16KT 10SM FEW045 BKN055 OVC065 22/14 A2995 RMK A01
KRZR 250255Z AUTO 20008G14KT 10SM OVC050 22/15 A2996 RMK A01
KRZR 250235Z AUTO 20008G15KT 10SM BKN050 BKN065 OVC080 22/15 A2996 RMK A01
KRZR 250215Z AUTO 19009G17KT 10SM SCT070 BKN080 OVC090 22/14 A2996 RMK A01
KRZR 250155Z AUTO 19009KT 10SM BKN070 OVC085 22/14 A2996 RMK A01
KRZR 250135Z AUTO 19006G13KT 10SM OVC075 23/14 A2996 RMK A01
KRZR 250115Z AUTO 19007G12KT 170V240 10SM BKN075 OVC085 23/14 A2996 RMK A01
KRZR 250055Z AUTO 19008G14KT 10SM SCT070 SCT095 BKN110 23/14 A2996 RMK A01
KRZR 250035Z AUTO 20013KT 10SM SCT100 23/13 A2996 RMK A01
KRZR 250015Z AUTO 20011G16KT 170V230 10SM SCT090 BKN110 23/13 A2996 RMK A01
KRZR 242355Z AUTO 20012G18KT 10SM SCT075 BKN085 BKN110 24/12 A2996 RMK A01
KRZR 242335Z AUTO 20011KT 10SM BKN075 OVC085 24/13 A2996 RMK A01
KRZR 242315Z AUTO 00000KT 10SM SCT080 BKN090 21/17 A2996 RMK A01
KRZR 242255Z AUTO 00000KT 10SM FEW060 FEW075 BKN090 22/16 A2996 RMK A01
KRZR 242235Z AUTO 00000KT 10SM FEW060 OVC090 22/16 A2996 RMK A01
KRZR 242215Z AUTO 00000KT 10SM FEW065 BKN090 OVC110 22/16 A2996 RMK A01
KRZR 242155Z AUTO 22003KT 10SM SCT070 BKN090 OVC110 22/16 A2997 RMK A01
KRZR 242135Z AUTO 24004KT 9SM BKN070 OVC085 22/16 A2999 RMK A01
KRZR 242115Z AUTO 28005G10KT 10SM FEW055 BKN070 OVC085 22/16 A2999 RMK A01
KRZR 242055Z AUTO 28008KT 10SM BKN055 OVC065 22/16 A2999 RMK A01
KRZR 242035Z AUTO 23008G15KT 10SM OVC055 24/14 A2999 RMK A01
KRZR 242015Z AUTO 21011KT 10SM OVC050 24/14 A3000 RMK A01
KRZR 241955Z AUTO 21009KT 10SM BKN055 OVC070 24/14 A3000 RMK A01
KRZR 241935Z AUTO 21008KT 180V240 10SM SCT046 BKN060 OVC070 24/15 A3002 RMK A01
KRZR 241915Z AUTO 21005G11KT 10SM OVC046 23/15 A3003 RMK A01
KRZR 241855Z AUTO 19008G15KT 10SM BKN048 OVC060 23/15 A3003 RMK A01
KRZR 241835Z AUTO 20009G15KT 9SM SCT044 OVC050 23/15 A3004 RMK A01
KRZR 241815Z AUTO 21013KT 10SM FEW040 BKN047 OVC055 23/15 A3006 RMK A01
KRZR 241755Z AUTO 20013G19KT 10SM SCT037 OVC045 23/15 A3007 RMK A01
KRZR 241735Z AUTO 21011G17KT 10SM FEW033 BKN044 OVC055 23/16 A3008 RMK A01
KRZR 241715Z AUTO 20013G22KT 170V230 10SM FEW031 SCT045 BKN055 23/16 A3010 RMK A01
KRZR 241655Z AUTO 20012G17KT 10SM SCT030 BKN050 BKN075 23/16 A3010 RMK A01
KRZR 241635Z AUTO 21014KT 10SM SCT029 BKN070 OVC075 22/16 A3011 RMK A01
KRZR 241615Z AUTO 21013G19KT 10SM FEW027 BKN070 BKN090 22/16 A3012 RMK A01
KRZR 241555Z AUTO 20012G18KT 160V220 10SM FEW025 FEW070 SCT090 22/17 A3012 RMK A01
KRZR 241535Z AUTO 21016KT 10SM FEW085 22/17 A3012 RMK A01
KRZR 241515Z AUTO 20012G21KT 160V220 10SM SCT080 BKN090 21/16 A3013 RMK A01
KRZR 241455Z AUTO 21011G20KT 10SM OVC075 21/17 A3013 RMK A01
KRZR 241435Z AUTO 20008G18KT 10SM BKN075 OVC085 21/17 A3013 RMK A01
KRZR 241415Z AUTO 20009G16KT 10SM FEW065 BKN075 BKN090 20/17 A3013 RMK A01
KRZR 241355Z AUTO 19008G17KT 10SM FEW065 BKN075 BKN110 20/17 A3013 RMK A01